createdAt,value
2022-11-28T00:01:50.061Z,26.60
2022-11-28T00:04:17.368Z,26.17
2022-11-28T00:06:50.138Z,25.17
2022-11-28T00:09:20.830Z,27.52
2022-11-28T00:11:49.724Z,29.77
2022-11-28T00:14:19.374Z,25.90
2022-11-28T00:16:47.819Z,26.90
2022-11-28T00:19:15.951Z,25.17
2022-11-28T00:21:43.507Z,25.20
2022-11-28T00:24:10.817Z,24.77
2022-11-28T00:26:41.767Z,24.65
2022-11-28T00:29:10.253Z,24.27
2022-11-28T00:31:44.589Z,23.67
2022-11-28T00:34:14.241Z,23.33
2022-11-28T00:36:45.406Z,24.55
2022-11-28T00:39:14.423Z,23.75
2022-11-28T00:41:42.654Z,24.27
2022-11-28T00:44:10.522Z,21.70
2022-11-28T00:46:38.283Z,23.15
2022-11-28T00:49:05.911Z,24.77
2022-11-28T00:51:35.529Z,21.85
2022-11-28T00:54:05.215Z,21.95
2022-11-28T00:56:36.833Z,22.40
2022-11-28T00:59:05.555Z,21.50
2022-11-28T01:01:41.872Z,21.58
2022-11-28T01:04:12.652Z,23.02
2022-11-28T01:06:47.447Z,20.48
2022-11-28T01:09:22.953Z,20.63
2022-11-28T01:11:53.868Z,22.25
2022-11-28T01:14:24.632Z,21.57
2022-11-28T01:16:53.163Z,22.98
2022-11-28T01:19:21.325Z,23.35
2022-11-28T01:21:49.264Z,23.27
2022-11-28T01:24:17.504Z,22.63
2022-11-28T01:26:45.314Z,20.98
2022-11-28T01:29:12.875Z,22.73
2022-11-28T01:31:40.654Z,21.25
2022-11-28T01:34:08.043Z,21.77
2022-11-28T01:36:35.744Z,21.73
2022-11-28T01:39:03.122Z,20.92
2022-11-28T01:41:30.717Z,22.08
2022-11-28T01:44:01.568Z,21.23
2022-11-28T01:46:31.209Z,22.17
2022-11-28T01:49:07.637Z,20.52
2022-11-28T01:51:36.522Z,21.92
2022-11-28T01:54:04.864Z,22.88
2022-11-28T01:57:18.204Z,23.30
2022-11-28T01:59:57.613Z,21.63
2022-11-28T02:02:38.754Z,23.27
2022-11-28T02:05:07.292Z,22.20
2022-11-28T02:07:37.046Z,22.45
2022-11-28T02:10:09.032Z,23.25
2022-11-28T02:13:22.950Z,25.50
2022-11-28T02:16:20.765Z,23.30
2022-11-28T02:18:50.920Z,23.60
2022-11-28T02:22:01.575Z,25.70
2022-11-28T02:25:13.900Z,24.48
2022-11-28T02:28:02.512Z,26.33
2022-11-28T02:31:03.185Z,25.67
2022-11-28T02:33:46.208Z,24.95
2022-11-28T02:36:23.238Z,24.58
2022-11-28T02:39:16.384Z,25.33
2022-11-28T02:42:28.723Z,25.48
2022-11-28T02:45:19.911Z,26.08
2022-11-28T02:48:15.938Z,26.25
2022-11-28T02:51:32.987Z,25.35
2022-11-28T02:54:04.845Z,24.25
2022-11-28T02:56:32.129Z,25.33
2022-11-28T02:58:59.630Z,24.05
2022-11-28T03:01:37.308Z,26.02
2022-11-28T03:04:30.965Z,23.20
2022-11-28T03:07:36.751Z,24.45
2022-11-28T03:10:19.406Z,24.88
2022-11-28T03:13:16.953Z,23.00
2022-11-28T03:16:11.092Z,25.13
2022-11-28T03:18:56.957Z,24.63
2022-11-28T03:21:40.953Z,23.77
2022-11-28T03:24:22.391Z,24.30
2022-11-28T03:26:58.063Z,26.75
2022-11-28T03:29:39.810Z,24.13
2022-11-28T03:32:18.387Z,24.83
2022-11-28T03:34:55.265Z,24.55
2022-11-28T03:37:33.240Z,25.92
2022-11-28T03:40:07.833Z,24.77
2022-11-28T03:42:44.415Z,25.88
2022-11-28T03:45:28.822Z,25.90
2022-11-28T03:48:02.973Z,24.48
2022-11-28T03:50:41.998Z,25.00
2022-11-28T03:53:24.580Z,25.20
2022-11-28T03:56:00.743Z,23.48
2022-11-28T03:58:37.983Z,24.85
2022-11-28T04:01:29.523Z,25.08
2022-11-28T04:04:25.760Z,24.40
2022-11-28T04:07:06.550Z,25.70
2022-11-28T04:09:48.121Z,24.75
2022-11-28T04:12:50.068Z,25.23
2022-11-28T04:15:45.301Z,25.73
2022-11-28T04:18:38.267Z,23.48
2022-11-28T04:21:34.627Z,25.83
2022-11-28T04:24:14.584Z,24.15
2022-11-28T04:26:51.881Z,25.10
2022-11-28T04:29:25.277Z,23.80
2022-11-28T04:31:58.369Z,23.48
2022-11-28T04:34:29.267Z,25.23
2022-11-28T04:37:03.334Z,24.13
2022-11-28T04:39:38.371Z,25.58
2022-11-28T04:42:23.126Z,24.08
2022-11-28T04:45:04.885Z,22.38
2022-11-28T04:47:32.449Z,24.10
2022-11-28T04:49:59.988Z,26.50
2022-11-28T04:53:00.493Z,27.13
2022-11-28T04:55:46.862Z,24.30
2022-11-28T04:58:22.729Z,26.27
2022-11-28T05:00:54.561Z,25.45
2022-11-28T05:03:27.187Z,25.60
2022-11-28T05:05:54.713Z,24.50
2022-11-28T05:08:22.571Z,24.70
2022-11-28T05:10:49.960Z,23.95
2022-11-28T05:13:17.970Z,22.92
2022-11-28T05:15:45.266Z,24.60
2022-11-28T05:18:13.184Z,25.83
2022-11-28T05:20:40.746Z,24.00
2022-11-28T05:23:08.192Z,25.90
2022-11-28T05:25:38.769Z,25.30
2022-11-28T05:28:06.575Z,24.20
2022-11-28T05:30:33.791Z,25.00
2022-11-28T05:33:02.206Z,24.23
2022-11-28T05:35:29.586Z,24.35
2022-11-28T05:37:57.024Z,25.45
2022-11-28T05:40:24.343Z,27.40
2022-11-28T05:42:51.877Z,28.75
2022-11-28T05:45:19.079Z,26.63
2022-11-28T05:47:46.620Z,26.23
2022-11-28T05:50:13.931Z,33.05
2022-11-28T05:52:41.448Z,28.90
2022-11-28T05:55:09.348Z,27.70
2022-11-28T05:57:36.866Z,29.35
2022-11-28T06:00:04.835Z,25.58
2022-11-28T06:02:35.318Z,23.73
2022-11-28T06:05:21.066Z,23.83
2022-11-28T06:07:50.137Z,24.75
2022-11-28T06:10:18.300Z,25.52
2022-11-28T06:12:45.821Z,23.05
2022-11-28T06:15:13.026Z,23.73
2022-11-28T06:17:40.690Z,24.98
2022-11-28T06:20:08.893Z,21.65
2022-11-28T06:22:36.362Z,22.15
2022-11-28T06:25:03.685Z,23.27
2022-11-28T06:27:31.197Z,21.65
2022-11-28T06:29:58.439Z,21.95
2022-11-28T06:32:25.978Z,21.65
2022-11-28T06:34:53.119Z,21.65
2022-11-28T06:37:20.616Z,23.88
2022-11-28T06:39:47.817Z,23.70
2022-11-28T06:42:16.243Z,24.92
2022-11-28T06:44:43.808Z,24.40
2022-11-28T06:47:11.414Z,24.92
2022-11-28T06:49:38.666Z,21.65
2022-11-28T06:52:06.152Z,21.75
2022-11-28T06:54:33.362Z,21.33
2022-11-28T06:57:00.867Z,20.73
2022-11-28T06:59:28.176Z,23.05
2022-11-28T07:01:57.779Z,22.50
2022-11-28T07:04:25.016Z,19.90
2022-11-28T07:06:52.571Z,21.13
2022-11-28T07:09:19.917Z,22.15
2022-11-28T07:11:47.385Z,21.98
2022-11-28T07:14:14.653Z,21.38
2022-11-28T07:16:42.308Z,21.50
2022-11-28T07:19:12.397Z,23.65
2022-11-28T07:21:41.081Z,22.92
2022-11-28T07:24:08.857Z,22.55
2022-11-28T07:26:38.209Z,22.75
2022-11-28T07:29:07.366Z,20.98
2022-11-28T07:31:35.026Z,22.48
2022-11-28T07:34:05.867Z,21.75
2022-11-28T07:36:33.639Z,22.05
2022-11-28T07:39:05.510Z,22.58
2022-11-28T07:41:33.017Z,23.65
2022-11-28T07:44:03.015Z,22.67
2022-11-28T07:46:33.394Z,33.33
2022-11-28T07:49:01.863Z,25.30
2022-11-28T07:51:34.253Z,25.13
2022-11-28T07:54:03.139Z,24.48
2022-11-28T07:57:04.559Z,23.55
2022-11-28T07:59:22.227Z,24.55
2022-11-28T08:01:49.811Z,25.17
2022-11-28T08:04:17.149Z,24.88
2022-11-28T08:06:44.949Z,26.98
2022-11-28T08:09:12.305Z,25.77
2022-11-28T08:11:40.809Z,23.33
2022-11-28T08:14:08.171Z,29.05
2022-11-28T08:16:37.116Z,24.80
2022-11-28T08:19:04.591Z,25.90
2022-11-28T08:21:34.512Z,25.73
2022-11-28T08:24:04.164Z,25.35
2022-11-28T08:26:33.335Z,26.50
2022-11-28T08:29:03.468Z,24.58
2022-11-28T08:31:38.273Z,25.67
2022-11-28T08:34:10.117Z,25.08
2022-11-28T08:36:37.883Z,28.58
2022-11-28T08:41:59.783Z,25.17
2022-11-28T08:44:30.324Z,26.67
2022-11-28T08:46:58.184Z,25.90
2022-11-28T08:49:25.490Z,25.75
2022-11-28T08:51:53.432Z,23.63
2022-11-28T08:54:21.240Z,24.23
2022-11-28T08:56:48.921Z,23.65
2022-11-28T08:59:16.149Z,24.52
2022-11-28T09:01:43.708Z,23.15
2022-11-28T09:04:11.118Z,21.73
2022-11-28T09:06:40.573Z,22.13
2022-11-28T09:09:09.246Z,23.00
2022-11-28T09:11:37.510Z,23.52
2022-11-28T09:14:05.213Z,23.63
2022-11-28T09:16:32.927Z,24.38
2022-11-28T09:19:00.462Z,22.83
2022-11-28T09:21:28.100Z,22.38
2022-11-28T09:23:56.767Z,22.67
2022-11-28T09:26:25.502Z,23.90
2022-11-28T09:28:53.679Z,22.83
2022-11-28T09:31:21.264Z,22.15
2022-11-28T09:33:49.589Z,22.33
2022-11-28T09:36:20.827Z,23.65
2022-11-28T09:38:48.947Z,22.42
2022-11-28T09:42:25.000Z,21.73
2022-11-28T09:45:11.039Z,23.05
2022-11-28T09:47:44.247Z,23.70
2022-11-28T09:50:16.821Z,22.60
2022-11-28T09:53:28.818Z,23.77
2022-11-28T09:56:24.758Z,22.67
2022-11-28T09:58:59.176Z,22.27
2022-11-28T10:01:50.023Z,21.65
2022-11-28T10:04:42.763Z,21.45
2022-11-28T10:07:44.228Z,21.00
2022-11-28T10:10:23.583Z,22.35
2022-11-28T10:13:41.249Z,21.63
2022-11-28T10:17:04.431Z,20.35
2022-11-28T10:19:56.793Z,21.58
2022-11-28T10:22:37.924Z,20.02
2022-11-28T10:25:38.849Z,19.73
2022-11-28T10:28:15.054Z,18.98
2022-11-28T10:30:52.522Z,18.85
2022-11-28T10:33:34.625Z,18.42
2022-11-28T10:36:03.439Z,19.00
2022-11-28T10:38:35.021Z,19.08
2022-11-28T10:41:22.937Z,19.35
2022-11-28T10:43:56.843Z,17.38
2022-11-28T10:47:10.970Z,16.77
2022-11-28T10:49:53.049Z,18.83
2022-11-28T10:53:13.282Z,18.20
2022-11-28T10:56:11.601Z,18.98
2022-11-28T10:59:15.579Z,19.92
2022-11-28T11:01:48.703Z,20.83
2022-11-28T11:04:26.847Z,20.60
2022-11-28T11:07:29.346Z,21.58
2022-11-28T11:10:14.461Z,19.13
2022-11-28T11:12:43.424Z,17.50
2022-11-28T11:15:35.206Z,17.00
2022-11-28T11:18:24.307Z,17.35
2022-11-28T11:20:52.341Z,17.20
2022-11-28T11:23:23.220Z,16.77
2022-11-28T11:25:58.538Z,16.35
2022-11-28T11:28:31.783Z,15.38
2022-11-28T11:31:07.150Z,16.75
2022-11-28T11:33:38.075Z,17.05
2022-11-28T11:36:26.731Z,16.13
2022-11-28T11:39:12.188Z,16.70
2022-11-28T11:41:43.086Z,15.65
2022-11-28T11:44:20.683Z,16.48
2022-11-28T11:47:00.744Z,16.27
2022-11-28T11:49:42.292Z,17.10
2022-11-28T11:52:15.587Z,16.05
2022-11-28T11:55:11.589Z,17.58
2022-11-28T11:57:51.598Z,17.67
2022-11-28T12:00:22.100Z,17.38
2022-11-28T12:02:58.428Z,17.02
2022-11-28T12:08:55.524Z,18.35
2022-11-28T12:11:35.601Z,17.45
2022-11-28T12:14:41.395Z,18.55
2022-11-28T12:17:48.236Z,17.02
2022-11-28T12:21:09.612Z,17.88
2022-11-28T12:24:01.540Z,18.95
2022-11-28T12:26:52.102Z,20.27
2022-11-28T12:29:48.628Z,23.05
2022-11-28T12:33:11.567Z,22.55
2022-11-28T12:35:43.342Z,19.13
2022-11-28T12:38:31.344Z,17.05
2022-11-28T12:41:32.336Z,15.43
2022-11-28T12:44:23.655Z,15.82
2022-11-28T12:47:18.233Z,17.73
2022-11-28T12:50:30.972Z,17.15
2022-11-28T12:53:36.100Z,16.45
2022-11-28T12:56:24.552Z,16.42
2022-11-28T12:59:00.742Z,16.58
2022-11-28T13:01:55.038Z,14.65
2022-11-28T13:04:53.098Z,14.93
2022-11-28T13:07:50.631Z,14.30
2022-11-28T13:10:54.144Z,15.35
2022-11-28T13:13:45.839Z,15.95
2022-11-28T13:16:51.699Z,15.27
2022-11-28T13:19:48.490Z,15.60
2022-11-28T13:22:50.041Z,15.32
2022-11-28T13:25:29.837Z,15.40
2022-11-28T13:28:09.117Z,16.25
2022-11-28T13:30:55.514Z,15.68
2022-11-28T13:33:54.883Z,15.13
2022-11-28T13:39:47.744Z,16.08
2022-11-28T13:43:04.502Z,15.63
2022-11-28T13:45:41.219Z,15.02
2022-11-28T13:49:12.344Z,14.52
2022-11-28T13:51:34.047Z,15.98
2022-11-28T13:54:20.061Z,15.43
2022-11-28T13:57:10.867Z,13.68
2022-11-28T13:59:39.235Z,14.35
2022-11-28T14:02:32.652Z,14.15
2022-11-28T14:05:00.710Z,15.32
2022-11-28T14:07:33.930Z,14.15
2022-11-28T14:10:19.297Z,14.75
2022-11-28T14:13:22.981Z,14.05
2022-11-28T14:16:24.716Z,13.15
2022-11-28T14:19:19.169Z,13.65
2022-11-28T14:22:34.871Z,13.20
2022-11-28T14:25:23.895Z,13.82
2022-11-28T14:27:58.968Z,14.15
2022-11-28T14:30:40.544Z,14.35
2022-11-28T14:33:42.532Z,15.30
2022-11-28T14:36:31.375Z,16.80
2022-11-28T14:39:16.827Z,15.35
2022-11-28T14:42:02.702Z,14.43
2022-11-28T14:44:57.172Z,14.10
2022-11-28T14:47:26.497Z,13.15
2022-11-28T14:50:06.032Z,13.82
2022-11-28T14:52:40.323Z,14.48
2022-11-28T14:55:10.776Z,12.82
2022-11-28T14:58:04.455Z,14.90
2022-11-28T15:00:56.054Z,16.50
2022-11-28T15:04:22.079Z,14.52
2022-11-28T15:06:50.436Z,15.52
2022-11-28T15:10:07.014Z,14.18
2022-11-28T15:13:02.454Z,14.57
2022-11-28T15:15:31.774Z,13.65
2022-11-28T15:18:03.272Z,13.38
2022-11-28T15:20:43.294Z,13.07
2022-11-28T15:23:32.594Z,13.07
2022-11-28T15:26:02.068Z,15.35
2022-11-28T15:28:34.021Z,14.65
2022-11-28T15:31:05.961Z,14.10
2022-11-28T15:33:34.149Z,13.40
2022-11-28T15:36:22.142Z,13.93
2022-11-28T15:38:49.898Z,14.63
2022-11-28T15:41:26.736Z,14.27
2022-11-28T15:43:56.644Z,16.23
2022-11-28T15:46:35.005Z,16.65
2022-11-28T15:49:02.428Z,18.48
2022-11-28T15:51:37.997Z,20.05
2022-11-28T15:54:35.536Z,20.85
2022-11-28T15:57:04.446Z,19.52
2022-11-28T15:59:32.371Z,18.98
2022-11-28T16:02:16.981Z,18.70
2022-11-28T16:04:45.716Z,18.08
2022-11-28T16:07:16.294Z,17.80
2022-11-28T16:10:05.523Z,19.42
2022-11-28T16:12:34.048Z,20.58
2022-11-28T16:15:03.420Z,18.85
2022-11-28T16:17:34.819Z,19.77
2022-11-28T16:20:03.778Z,18.83
2022-11-28T16:22:37.325Z,19.38
2022-11-28T16:25:23.320Z,20.17
2022-11-28T16:27:57.452Z,18.52
2022-11-28T16:30:38.160Z,18.20
2022-11-28T16:33:42.564Z,18.05
2022-11-28T16:36:24.379Z,16.75
2022-11-28T16:39:16.902Z,17.92
2022-11-28T16:42:13.511Z,16.80
2022-11-28T16:44:41.250Z,17.60
2022-11-28T16:47:31.171Z,16.05
2022-11-28T16:50:14.101Z,14.48
2022-11-28T16:52:51.892Z,14.20
2022-11-28T16:55:39.651Z,14.85
2022-11-28T16:58:21.778Z,14.18
2022-11-28T17:01:00.707Z,15.57
2022-11-28T17:03:51.073Z,15.35
2022-11-28T17:06:37.636Z,13.30
2022-11-28T17:09:11.939Z,14.63
2022-11-28T17:12:03.319Z,16.13
2022-11-28T17:14:31.062Z,14.55
2022-11-28T17:17:01.072Z,15.18
2022-11-28T17:19:28.428Z,15.77
2022-11-28T17:21:59.624Z,15.05
2022-11-28T17:24:36.336Z,16.20
2022-11-28T17:27:07.704Z,15.77
2022-11-28T17:29:35.349Z,16.48
2022-11-28T17:32:02.979Z,14.57
2022-11-28T17:34:33.578Z,16.23
2022-11-28T17:37:03.084Z,14.38
2022-11-28T17:39:30.345Z,15.07
2022-11-28T17:41:58.877Z,16.10
2022-11-28T17:44:30.969Z,14.88
2022-11-28T17:47:00.806Z,16.70
2022-11-28T17:49:29.581Z,16.85
2022-11-28T17:51:57.655Z,17.73
2022-11-28T17:54:27.168Z,18.83
2022-11-28T17:56:54.937Z,19.35
2022-11-28T17:59:24.501Z,24.30
2022-11-28T18:01:51.821Z,20.38
2022-11-28T18:04:19.611Z,18.85
2022-11-28T18:06:48.816Z,18.00
2022-11-28T18:09:16.473Z,19.48
2022-11-28T18:11:46.368Z,18.50
2022-11-28T18:14:19.221Z,17.95
2022-11-28T18:16:47.160Z,18.55
2022-11-28T18:19:14.709Z,17.65
2022-11-28T18:21:41.943Z,17.48
2022-11-28T18:24:09.564Z,16.58
2022-11-28T18:26:37.828Z,17.75
2022-11-28T18:29:07.335Z,18.10
2022-11-28T18:31:35.646Z,19.25
2022-11-28T18:34:06.417Z,21.23
2022-11-28T18:36:37.703Z,21.13
2022-11-28T18:39:09.323Z,19.52
2022-11-28T18:41:36.600Z,21.25
2022-11-28T18:44:05.619Z,21.48
2022-11-28T18:46:36.190Z,19.83
2022-11-28T18:49:03.721Z,21.13
2022-11-28T18:51:34.533Z,21.25
2022-11-28T18:54:06.334Z,19.40
2022-11-28T18:56:34.079Z,20.55
2022-11-28T18:59:01.767Z,19.45
2022-11-28T19:01:32.655Z,20.70
2022-11-28T19:04:09.431Z,20.92
2022-11-28T19:06:39.524Z,21.70
2022-11-28T19:09:12.055Z,21.88
2022-11-28T19:11:40.481Z,23.30
2022-11-28T19:14:09.004Z,22.55
2022-11-28T19:16:38.083Z,20.90
2022-11-28T19:19:06.821Z,21.42
2022-11-28T19:21:36.521Z,21.52
2022-11-28T19:24:08.135Z,21.85
2022-11-28T19:26:36.117Z,22.70
2022-11-28T19:29:04.557Z,23.88
2022-11-28T19:31:35.612Z,23.23
2022-11-28T19:34:18.623Z,23.55
2022-11-28T19:36:50.183Z,23.10
2022-11-28T19:39:22.312Z,23.13
2022-11-28T19:41:52.566Z,20.60
2022-11-28T19:44:24.263Z,21.20
2022-11-28T19:46:52.924Z,22.38
2022-11-28T19:49:24.007Z,22.20
2022-11-28T19:51:52.300Z,23.27
2022-11-28T19:54:20.212Z,22.20
2022-11-28T19:56:49.121Z,22.40
2022-11-28T19:59:17.571Z,20.80
2022-11-28T20:01:45.614Z,21.67
2022-11-28T20:04:13.105Z,22.40
2022-11-28T20:06:40.377Z,22.25
2022-11-28T20:09:11.775Z,23.17
2022-11-28T20:11:39.962Z,23.10
2022-11-28T20:14:14.424Z,24.27
2022-11-28T20:16:42.479Z,24.33
2022-11-28T20:19:12.239Z,26.63
2022-11-28T20:21:40.346Z,25.50
2022-11-28T20:24:08.398Z,26.00
2022-11-28T20:26:41.920Z,22.80
2022-11-28T20:29:14.416Z,24.17
2022-11-28T20:31:45.971Z,22.67
2022-11-28T20:34:16.221Z,23.92
2022-11-28T20:36:44.197Z,22.88
2022-11-28T20:39:12.925Z,24.63
2022-11-28T20:41:40.209Z,25.65
2022-11-28T20:44:08.367Z,24.05
2022-11-28T20:46:35.891Z,23.48
2022-11-28T20:49:06.511Z,24.23
2022-11-28T20:51:35.879Z,24.15
2022-11-28T20:54:06.062Z,28.37
2022-11-28T20:57:05.108Z,26.30
2022-11-28T20:59:27.061Z,25.67
2022-11-28T21:01:54.688Z,24.13
2022-11-28T21:04:22.364Z,24.63
2022-11-28T21:06:49.701Z,24.70
2022-11-28T21:09:20.491Z,26.23
2022-11-28T21:11:58.600Z,24.27
2022-11-28T21:14:29.181Z,22.90
2022-11-28T21:16:58.046Z,25.50
2022-11-28T21:19:26.232Z,27.85
2022-11-28T21:21:54.012Z,24.70
2022-11-28T21:24:21.876Z,26.27
2022-11-28T21:26:53.432Z,25.70
2022-11-28T21:29:23.726Z,27.47
2022-11-28T21:31:51.350Z,26.47
2022-11-28T21:34:19.519Z,26.90
2022-11-28T21:36:47.424Z,28.33
2022-11-28T21:39:20.448Z,27.63
2022-11-28T21:41:48.084Z,28.30
2022-11-28T21:44:15.573Z,28.42
2022-11-28T21:46:42.833Z,29.00
2022-11-28T21:49:10.456Z,28.90
2022-11-28T21:51:37.607Z,29.57
2022-11-28T21:54:05.287Z,28.10
2022-11-28T21:56:32.590Z,28.90
2022-11-28T21:59:00.062Z,29.00
2022-11-28T22:01:27.296Z,28.23
2022-11-28T22:04:00.606Z,26.20
2022-11-28T22:06:29.521Z,28.03
2022-11-28T22:08:57.900Z,27.53
2022-11-28T22:11:25.649Z,28.87
2022-11-28T22:13:53.258Z,29.03
2022-11-28T22:16:38.227Z,28.52
2022-11-28T22:19:05.905Z,29.60
2022-11-28T22:21:52.064Z,28.35
2022-11-28T22:24:21.967Z,25.30
2022-11-28T22:26:49.740Z,28.83
2022-11-28T22:29:17.282Z,27.17
2022-11-28T22:31:44.524Z,28.37
2022-11-28T22:34:12.079Z,29.23
2022-11-28T22:36:39.399Z,27.17
2022-11-28T22:39:06.980Z,28.53
2022-11-28T22:41:34.300Z,28.97
2022-11-28T22:44:04.331Z,29.03
2022-11-28T22:46:32.684Z,28.20
2022-11-28T22:49:01.997Z,29.43
2022-11-28T22:51:31.213Z,29.40
2022-11-28T22:54:02.023Z,29.50
2022-11-28T22:56:32.198Z,30.77
2022-11-28T22:59:00.741Z,30.03
2022-11-28T23:01:31.410Z,30.17
2022-11-28T23:03:59.597Z,30.67
2022-11-28T23:06:31.378Z,30.10
2022-11-28T23:09:01.402Z,29.17
2022-11-28T23:11:33.050Z,31.87
2022-11-28T23:14:02.475Z,29.85
2022-11-28T23:16:36.285Z,31.63
2022-11-28T23:19:08.590Z,32.67
2022-11-28T23:21:39.735Z,33.07
2022-11-28T23:24:09.671Z,32.55
2022-11-28T23:26:36.819Z,31.07
2022-11-28T23:29:05.494Z,31.70
2022-11-28T23:31:36.852Z,33.50
2022-11-28T23:34:05.712Z,31.47
2022-11-28T23:36:41.767Z,30.27
2022-11-28T23:39:17.440Z,33.55
2022-11-28T23:41:45.280Z,32.30
2022-11-28T23:44:15.461Z,31.60
2022-11-28T23:46:44.936Z,31.60
2022-11-28T23:49:13.271Z,32.30
2022-11-28T23:51:41.525Z,33.70
2022-11-28T23:54:11.746Z,34.50
2022-11-28T23:56:40.875Z,36.07
2022-11-28T23:59:10.887Z,34.17
